ADDS METAR Data INFO
IDs: Format: Raw Decoded Include TAF

Data at: 1155 UTC 25 Jun 2018

KADS 251148Z 25003KT 10SM BKN015 BKN041 BKN080 26/22 A3003
KADS 251051Z 28012G18KT 10SM BKN028 OVC034 27/21 A3004
KADS 251035Z AUTO 21009G18KT 10SM SCT030 OVC036 27/21 A2998 RMK AO2 T02670211
KADS 251015Z AUTO 19012G19KT 10SM SCT028 OVC035 27/21 A2995 RMK AO2 T02660210
KADS 250955Z AUTO 19014G27KT 10SM SCT029 OVC033 27/21 A2993 RMK AO2 T02700210
KADS 250935Z AUTO 20012G21KT 170V230 10SM SCT029 OVC035 27/21 A2992 RMK AO2 T02710213
KADS 250915Z AUTO 19013G21KT 10SM BKN027 OVC037 27/22 A2990 RMK AO2 T02730216
KADS 250855Z AUTO 18012G18KT 10SM OVC027 27/22 A2990 RMK AO2 T02740216
KADS 250835Z AUTO 18015G30KT 10SM OVC027 28/22 A2989 RMK AO2 T02750216
KADS 250815Z AUTO 19010G19KT 10SM OVC027 27/22 A2988 RMK AO2 T02730217
KADS 250755Z AUTO 17011G22KT 10SM BKN027 28/22 A2987 RMK AO2 T02750217
KADS 250735Z AUTO 18017G27KT 10SM SCT027 28/22 A2986 RMK AO2 T02750216
KADS 250715Z AUTO 18011G20KT 10SM SCT029 28/21 A2985 RMK AO2 T02780214
KADS 250655Z AUTO 17018G24KT 10SM CLR 28/21 A2984 RMK AO2 T02810212
KADS 250635Z AUTO 17014G26KT 10SM CLR 29/21 A2984 RMK AO2 T02850210
KADS 250615Z AUTO 17015G25KT 10SM CLR 29/21 A2986 RMK AO2 T02870212
KADS 250555Z AUTO 17014G21KT 10SM CLR 29/21 A2986 RMK AO2 T02900210 10352 20290 403690270
KADS 250535Z AUTO 16016G24KT 10SM CLR 29/21 A2987 RMK AO2 T02910210
KADS 250515Z AUTO 16017G27KT 10SM CLR 29/21 A2987 RMK AO2 T02940210
KADS 250455Z AUTO 16018G23KT 10SM CLR 30/21 A2987 RMK AO2 T02950211
KADS 250435Z AUTO 16013G21KT 10SM CLR 30/21 A2988 RMK AO2 T02990210
KADS 250415Z AUTO 15016G22KT 10SM CLR 30/21 A2988 RMK AO2 T03000210
KADS 250355Z AUTO 16013G21KT 10SM CLR 30/21 A2988 RMK AO2 T03030210
KADS 250335Z AUTO 15016G21KT 10SM CLR 31/21 A2987 RMK AO2 T03070208
KADS 250315Z AUTO 15012G19KT 10SM CLR 31/21 A2986 RMK AO2 T03100208
KADS 250155Z 14011G22KT 10SM SKC 32/20 A2982
KADS 250048Z 12016G23KT 10SM SKC 34/19 A2984
KADS 242348Z 14012G22KT 10SM SCT070 35/18 A2985
KADS 242247Z 13012G20KT 10SM SKC 35/19 A2984
KADS 242154Z 16020G29KT 10SM SKC 37/18 A2981
KADS 242047Z 16020G33KT 10SM SKC 36/19 A2979
KADS 241948Z 15023G30KT 10SM SKC 35/20 A2979
KADS 241847Z 17017G24KT 10SM SKC 34/20 A2984
KADS 241747Z 16014G21KT 10SM SCT044 32/20 A2986
KADS 241647Z 16018G24KT 10SM SCT041 32/20 A2987
KADS 241547Z 15014G21KT 10SM SCT032 SCT039 31/22 A2987
KADS 241447Z 15013G17KT 10SM BKN034 BKN039 29/21 A2989
KADS 241347Z 17011G17KT 10SM BKN032 OVC039 28/21 A2988
KADS 241247Z 19007G13KT 10SM OVC030 28/21 A2986
KADS 241147Z 18014G23KT 10SM OVC028 28/21 A2980
KADS 241047Z 18013G21KT 10SM BKN025 27/21 A2974
KADS 241035Z AUTO 18010G16KT 10SM SCT028 27/22 A2978 RMK AO2 T02700215
KADS 241015Z AUTO 16016G22KT 10SM BKN028 27/22 A2974 RMK AO2 T02710216
KADS 240955Z AUTO 17012G22KT 10SM SCT030 27/22 A2974 RMK AO2 T02700215
KADS 240935Z AUTO 17014G20KT 10SM SCT030 27/22 A2973 RMK AO2 T02710215
KADS 240915Z AUTO 17015G24KT 10SM SCT028 27/22 A2972 RMK AO2 T02710217
KADS 240855Z AUTO 18014G20KT 10SM SCT028 27/22 A2973 RMK AO2 T02720219
KADS 240835Z AUTO 16020G29KT 10SM CLR 27/22 A2968 RMK AO2 T02720220
KADS 240815Z AUTO 17020G33KT 10SM CLR 27/22 A2969 RMK AO2 T02740220
KADS 240755Z AUTO 16025G33KT 10SM CLR 28/22 A2969 RMK AO2 T02760219
KADS 240735Z AUTO 17021G33KT 10SM CLR 28/22 A2971 RMK AO2 T02800218
KADS 240715Z AUTO 17020G30KT 10SM CLR 28/22 A2975 RMK AO2 T02830217
KADS 240655Z AUTO 18018G25KT 10SM CLR 29/22 A2978 RMK AO2 LTG DSNT N AND SW T02860215
KADS 240635Z AUTO 17013G21KT 10SM VCTS CLR 29/21 A2981 RMK AO2 LTG DSNT SW T02900214
KADS 240615Z AUTO 19017G26KT 10SM CLR 29/21 A2982 RMK AO2 LTG DSNT SW T02930212
KADS 240555Z AUTO 18012G22KT 10SM CLR 30/21 A2984 RMK AO2 LTG DSNT W T02960210 10330 20296 403510245
KADS 240535Z AUTO 19011G19KT 10SM CLR 30/21 A2984 RMK AO2 LTG DSNT SW AND W T02980208
KADS 240515Z AUTO 18009G20KT 10SM CLR 30/21 A2983 RMK AO2 LTG DSNT W T02970211
KADS 240455Z AUTO 16009G19KT 10SM CLR 30/21 A2982 RMK AO2 T02990211
KADS 240435Z AUTO 16012G19KT 10SM CLR 30/21 A2981 RMK AO2 T03010210
KADS 240415Z AUTO 15015G21KT 10SM CLR 30/21 A2979 RMK AO2 T03040211
KADS 240355Z AUTO 15013G19KT 10SM CLR 31/21 A2980 RMK AO2 T03060212
KADS 240335Z AUTO 15011G15KT 10SM CLR 31/22 A2980 RMK AO2 T03050215
KADS 240315Z AUTO 14015G18KT 10SM CLR 31/22 A2977 RMK AO2 T03060215
KADS 240247Z 12013G19KT 10SM SKC 31/21 A2974
KADS 240147Z 12014G19KT 10SM OVC065 32/20 A2974
KADS 240047Z 12016G21KT 10SM SCT065 33/20 A2974